Pleasant View, Illinois
Current Conditions -  °F | °C
As of 1:15 PM on Monday 22 Dec 2014 (Local Time) from KMQB Reporting Station
Haze Haze  
Wind Chill: 32°   Ceiling: 400
Heat Index: 39°   Visibility: 2.5mi
Dew Point: 39°   Wind: 9mph
Humidity: 100%   Direction: 140°SE
Pressure: 29.61"   Gusts: NA
Location:  40.1451°N, 90.5648°W
Report Text: KMQB 221915Z AUTO 14008KT 2 1/2SM BR OVC004 04/04 A2961 RMK AO2 T00370037
Loading
Personal Weather Stations






























Interactive Weather Map New forecast layout! Learn more

10-Day Weather Forecast

Advertisements
Track Severe Weather on mobile